sensor_id;sensor_type;location;lat;lon;timestamp;temperature;humidity
14769;DHT22;7476;49.404;11.152;2022-12-18T00:01:48;-13.20;99.90
14769;DHT22;7476;49.404;11.152;2022-12-18T00:04:20;-13.10;99.90
14769;DHT22;7476;49.404;11.152;2022-12-18T00:06:47;-13.10;99.90
14769;DHT22;7476;49.404;11.152;2022-12-18T00:09:14;-13.20;99.90
14769;DHT22;7476;49.404;11.152;2022-12-18T00:11:41;-13.40;99.90
14769;DHT22;7476;49.404;11.152;2022-12-18T00:14:09;-13.70;99.90
14769;DHT22;7476;49.404;11.152;2022-12-18T00:16:37;-13.60;99.90
14769;DHT22;7476;49.404;11.152;2022-12-18T00:19:06;-13.80;99.90
14769;DHT22;7476;49.404;11.152;2022-12-18T00:21:34;-13.60;99.90
14769;DHT22;7476;49.404;11.152;2022-12-18T00:24:00;-13.50;99.90
14769;DHT22;7476;49.404;11.152;2022-12-18T00:26:29;-13.60;99.90
14769;DHT22;7476;49.404;11.152;2022-12-18T00:28:58;-13.70;99.90
14769;DHT22;7476;49.404;11.152;2022-12-18T00:31:25;-13.90;99.90
14769;DHT22;7476;49.404;11.152;2022-12-18T00:33:53;-14.00;99.90
14769;DHT22;7476;49.404;11.152;2022-12-18T00:36:21;-13.90;99.90
14769;DHT22;7476;49.404;11.152;2022-12-18T00:38:50;-13.90;99.90
14769;DHT22;7476;49.404;11.152;2022-12-18T00:41:17;-14.00;99.90
14769;DHT22;7476;49.404;11.152;2022-12-18T00:44:06;-14.20;99.90
14769;DHT22;7476;49.404;11.152;2022-12-18T00:46:32;-14.10;99.90
14769;DHT22;7476;49.404;11.152;2022-12-18T00:48:59;-14.20;99.90
14769;DHT22;7476;49.404;11.152;2022-12-18T00:51:26;-14.20;99.90
14769;DHT22;7476;49.404;11.152;2022-12-18T00:53:54;-14.30;99.90
14769;DHT22;7476;49.404;11.152;2022-12-18T00:56:20;-14.40;99.90
14769;DHT22;7476;49.404;11.152;2022-12-18T00:58:47;-14.40;99.90
14769;DHT22;7476;49.404;11.152;2022-12-18T01:01:15;-14.00;99.90
14769;DHT22;7476;49.404;11.152;2022-12-18T01:03:41;-14.20;99.90
14769;DHT22;7476;49.404;11.152;2022-12-18T01:06:12;-14.20;99.90
14769;DHT22;7476;49.404;11.152;2022-12-18T01:08:39;-14.30;99.90
14769;DHT22;7476;49.404;11.152;2022-12-18T01:11:09;-14.30;99.90
14769;DHT22;7476;49.404;11.152;2022-12-18T01:13:37;-14.20;99.90
14769;DHT22;7476;49.404;11.152;2022-12-18T01:16:04;-14.20;99.90
14769;DHT22;7476;49.404;11.152;2022-12-18T01:18:31;-14.30;99.90
14769;DHT22;7476;49.404;11.152;2022-12-18T01:20:58;-14.40;99.90
14769;DHT22;7476;49.404;11.152;2022-12-18T01:23:25;-14.50;99.90
14769;DHT22;7476;49.404;11.152;2022-12-18T01:25:51;-14.50;99.90
14769;DHT22;7476;49.404;11.152;2022-12-18T01:28:19;-14.60;99.90
14769;DHT22;7476;49.404;11.152;2022-12-18T01:30:46;-14.50;99.90
14769;DHT22;7476;49.404;11.152;2022-12-18T01:33:13;-14.50;99.90
14769;DHT22;7476;49.404;11.152;2022-12-18T01:35:40;-14.50;99.90
14769;DHT22;7476;49.404;11.152;2022-12-18T01:38:07;-14.20;99.90
14769;DHT22;7476;49.404;11.152;2022-12-18T01:40:34;-14.10;99.90
14769;DHT22;7476;49.404;11.152;2022-12-18T01:43:01;-14.10;99.90
14769;DHT22;7476;49.404;11.152;2022-12-18T01:45:31;-14.10;99.90
14769;DHT22;7476;49.404;11.152;2022-12-18T01:48:00;-14.30;99.90
14769;DHT22;7476;49.404;11.152;2022-12-18T01:50:31;-14.40;99.90
14769;DHT22;7476;49.404;11.152;2022-12-18T01:53:05;-14.40;99.90
14769;DHT22;7476;49.404;11.152;2022-12-18T01:55:37;-14.50;99.90
14769;DHT22;7476;49.404;11.152;2022-12-18T01:58:06;-14.50;99.90
14769;DHT22;7476;49.404;11.152;2022-12-18T02:00:34;-14.40;99.90
14769;DHT22;7476;49.404;11.152;2022-12-18T02:03:01;-14.20;99.90
14769;DHT22;7476;49.404;11.152;2022-12-18T02:05:48;-14.40;99.90
14769;DHT22;7476;49.404;11.152;2022-12-18T02:08:22;-14.60;99.90
14769;DHT22;7476;49.404;11.152;2022-12-18T02:10:57;-14.60;99.90
14769;DHT22;7476;49.404;11.152;2022-12-18T02:13:30;-14.70;99.90
14769;DHT22;7476;49.404;11.152;2022-12-18T02:16:04;-14.70;99.90
14769;DHT22;7476;49.404;11.152;2022-12-18T02:18:36;-14.70;99.90
14769;DHT22;7476;49.404;11.152;2022-12-18T02:21:10;-14.70;99.90
14769;DHT22;7476;49.404;11.152;2022-12-18T02:23:48;-14.50;99.90
14769;DHT22;7476;49.404;11.152;2022-12-18T02:26:21;-14.10;99.90
14769;DHT22;7476;49.404;11.152;2022-12-18T02:28:52;-13.90;99.90
14769;DHT22;7476;49.404;11.152;2022-12-18T02:31:23;-14.00;99.90
14769;DHT22;7476;49.404;11.152;2022-12-18T02:33:53;-14.10;99.90
14769;DHT22;7476;49.404;11.152;2022-12-18T02:36:22;-14.00;99.90
14769;DHT22;7476;49.404;11.152;2022-12-18T02:38:50;-14.00;99.90
14769;DHT22;7476;49.404;11.152;2022-12-18T02:41:20;-14.10;99.90
14769;DHT22;7476;49.404;11.152;2022-12-18T02:43:47;-13.80;99.90
14769;DHT22;7476;49.404;11.152;2022-12-18T02:46:27;-13.30;99.90
14769;DHT22;7476;49.404;11.152;2022-12-18T02:49:01;-13.00;99.90
14769;DHT22;7476;49.404;11.152;2022-12-18T02:51:32;-12.70;99.90
14769;DHT22;7476;49.404;11.152;2022-12-18T02:54:05;-12.20;99.90
14769;DHT22;7476;49.404;11.152;2022-12-18T02:56:38;-11.80;99.90
14769;DHT22;7476;49.404;11.152;2022-12-18T02:59:11;-11.70;99.90
14769;DHT22;7476;49.404;11.152;2022-12-18T03:01:43;-11.50;99.90
14769;DHT22;7476;49.404;11.152;2022-12-18T03:04:17;-11.30;99.90
14769;DHT22;7476;49.404;11.152;2022-12-18T03:06:48;-11.20;99.90
14769;DHT22;7476;49.404;11.152;2022-12-18T03:09:19;-11.10;99.90
14769;DHT22;7476;49.404;11.152;2022-12-18T03:11:54;-11.00;99.90
14769;DHT22;7476;49.404;11.152;2022-12-18T03:14:40;-10.80;99.90
14769;DHT22;7476;49.404;11.152;2022-12-18T03:17:14;-10.70;99.90
14769;DHT22;7476;49.404;11.152;2022-12-18T03:19:43;-10.50;99.90
14769;DHT22;7476;49.404;11.152;2022-12-18T03:22:13;-10.40;99.90
14769;DHT22;7476;49.404;11.152;2022-12-18T03:24:42;-10.30;99.90
14769;DHT22;7476;49.404;11.152;2022-12-18T03:27:12;-10.20;99.90
14769;DHT22;7476;49.404;11.152;2022-12-18T03:29:45;-10.10;99.90
14769;DHT22;7476;49.404;11.152;2022-12-18T03:32:16;-10.00;99.90
14769;DHT22;7476;49.404;11.152;2022-12-18T03:34:47;-9.80;99.90
14769;DHT22;7476;49.404;11.152;2022-12-18T03:37:15;-9.80;99.90
14769;DHT22;7476;49.404;11.152;2022-12-18T03:39:42;-9.70;99.90
14769;DHT22;7476;49.404;11.152;2022-12-18T03:42:15;-9.60;99.90
14769;DHT22;7476;49.404;11.152;2022-12-18T03:44:48;-9.50;99.90
14769;DHT22;7476;49.404;11.152;2022-12-18T03:47:19;-9.30;99.90
14769;DHT22;7476;49.404;11.152;2022-12-18T03:49:55;-9.20;99.90
14769;DHT22;7476;49.404;11.152;2022-12-18T03:52:26;-9.20;99.90
14769;DHT22;7476;49.404;11.152;2022-12-18T03:54:55;-9.10;99.90
14769;DHT22;7476;49.404;11.152;2022-12-18T03:57:27;-9.10;99.90
14769;DHT22;7476;49.404;11.152;2022-12-18T03:59:57;-9.00;99.90
14769;DHT22;7476;49.404;11.152;2022-12-18T04:02:26;-8.90;99.90
14769;DHT22;7476;49.404;11.152;2022-12-18T04:04:57;-8.90;99.90
14769;DHT22;7476;49.404;11.152;2022-12-18T04:07:24;-8.80;99.90
14769;DHT22;7476;49.404;11.152;2022-12-18T04:09:54;-8.70;99.90
14769;DHT22;7476;49.404;11.152;2022-12-18T04:12:25;-8.70;99.90
14769;DHT22;7476;49.404;11.152;2022-12-18T04:14:52;-8.60;99.90
14769;DHT22;7476;49.404;11.152;2022-12-18T04:17:19;-8.60;99.90
14769;DHT22;7476;49.404;11.152;2022-12-18T04:19:46;-8.60;99.90
14769;DHT22;7476;49.404;11.152;2022-12-18T04:22:12;-8.50;99.90
14769;DHT22;7476;49.404;11.152;2022-12-18T04:24:39;-8.50;99.90
14769;DHT22;7476;49.404;11.152;2022-12-18T04:27:06;-8.40;99.90
14769;DHT22;7476;49.404;11.152;2022-12-18T04:29:34;-8.30;99.90
14769;DHT22;7476;49.404;11.152;2022-12-18T04:32:01;-8.20;99.90
14769;DHT22;7476;49.404;11.152;2022-12-18T04:34:27;-8.20;99.90
14769;DHT22;7476;49.404;11.152;2022-12-18T04:36:54;-8.20;99.90
14769;DHT22;7476;49.404;11.152;2022-12-18T04:39:21;-8.10;99.90
14769;DHT22;7476;49.404;11.152;2022-12-18T04:41:47;-8.00;99.90
14769;DHT22;7476;49.404;11.152;2022-12-18T04:44:14;-8.00;99.90
14769;DHT22;7476;49.404;11.152;2022-12-18T04:46:42;-7.90;99.90
14769;DHT22;7476;49.404;11.152;2022-12-18T04:49:09;-7.80;99.90
14769;DHT22;7476;49.404;11.152;2022-12-18T04:51:36;-7.80;99.90
14769;DHT22;7476;49.404;11.152;2022-12-18T04:54:03;-7.80;99.90
14769;DHT22;7476;49.404;11.152;2022-12-18T04:56:30;-7.80;99.90
14769;DHT22;7476;49.404;11.152;2022-12-18T04:58:57;-7.80;99.90
14769;DHT22;7476;49.404;11.152;2022-12-18T05:01:24;-7.70;99.90
14769;DHT22;7476;49.404;11.152;2022-12-18T05:03:52;-7.70;99.90
14769;DHT22;7476;49.404;11.152;2022-12-18T05:06:19;-7.60;99.90
14769;DHT22;7476;49.404;11.152;2022-12-18T05:08:46;-7.60;99.90
14769;DHT22;7476;49.404;11.152;2022-12-18T05:11:14;-7.60;99.90
14769;DHT22;7476;49.404;11.152;2022-12-18T05:13:41;-7.60;99.90
14769;DHT22;7476;49.404;11.152;2022-12-18T05:16:08;-7.50;99.90
14769;DHT22;7476;49.404;11.152;2022-12-18T05:18:35;-7.50;99.90
14769;DHT22;7476;49.404;11.152;2022-12-18T05:21:04;-7.40;99.90
14769;DHT22;7476;49.404;11.152;2022-12-18T05:23:30;-7.40;99.90
14769;DHT22;7476;49.404;11.152;2022-12-18T05:26:00;-7.30;99.90
14769;DHT22;7476;49.404;11.152;2022-12-18T05:28:29;-7.30;99.90
14769;DHT22;7476;49.404;11.152;2022-12-18T05:30:57;-7.20;99.90
14769;DHT22;7476;49.404;11.152;2022-12-18T05:33:26;-7.20;99.90
14769;DHT22;7476;49.404;11.152;2022-12-18T05:35:55;-7.20;99.90
14769;DHT22;7476;49.404;11.152;2022-12-18T05:38:25;-7.10;99.90
14769;DHT22;7476;49.404;11.152;2022-12-18T05:40:52;-7.10;99.90
14769;DHT22;7476;49.404;11.152;2022-12-18T05:43:23;-7.10;99.90
14769;DHT22;7476;49.404;11.152;2022-12-18T05:45:51;-7.00;99.90
14769;DHT22;7476;49.404;11.152;2022-12-18T05:48:18;-7.00;99.90
14769;DHT22;7476;49.404;11.152;2022-12-18T05:50:46;-7.00;99.90
14769;DHT22;7476;49.404;11.152;2022-12-18T05:53:15;-7.00;99.90
14769;DHT22;7476;49.404;11.152;2022-12-18T05:55:43;-7.00;99.90
14769;DHT22;7476;49.404;11.152;2022-12-18T05:58:12;-6.90;99.90
14769;DHT22;7476;49.404;11.152;2022-12-18T06:00:42;-6.70;99.90
14769;DHT22;7476;49.404;11.152;2022-12-18T06:03:10;-6.70;99.90
14769;DHT22;7476;49.404;11.152;2022-12-18T06:05:38;-6.70;99.90
14769;DHT22;7476;49.404;11.152;2022-12-18T06:08:05;-6.50;99.90
14769;DHT22;7476;49.404;11.152;2022-12-18T06:10:33;-6.40;99.90
14769;DHT22;7476;49.404;11.152;2022-12-18T06:13:01;-6.20;99.90
14769;DHT22;7476;49.404;11.152;2022-12-18T06:15:28;-6.10;99.90
14769;DHT22;7476;49.404;11.152;2022-12-18T06:17:54;-6.10;99.90
14769;DHT22;7476;49.404;11.152;2022-12-18T06:20:21;-6.10;99.90
14769;DHT22;7476;49.404;11.152;2022-12-18T06:22:48;-6.00;99.90
14769;DHT22;7476;49.404;11.152;2022-12-18T06:25:14;-6.00;99.90
14769;DHT22;7476;49.404;11.152;2022-12-18T06:27:41;-5.90;99.90
14769;DHT22;7476;49.404;11.152;2022-12-18T06:30:10;-5.80;99.90
14769;DHT22;7476;49.404;11.152;2022-12-18T06:32:37;-5.80;99.90
14769;DHT22;7476;49.404;11.152;2022-12-18T06:35:05;-5.80;99.90
14769;DHT22;7476;49.404;11.152;2022-12-18T06:37:32;-5.80;99.90
14769;DHT22;7476;49.404;11.152;2022-12-18T06:39:58;-5.70;99.90
14769;DHT22;7476;49.404;11.152;2022-12-18T06:42:26;-5.70;99.90
14769;DHT22;7476;49.404;11.152;2022-12-18T06:44:54;-5.60;99.90
14769;DHT22;7476;49.404;11.152;2022-12-18T06:47:22;-5.60;99.90
14769;DHT22;7476;49.404;11.152;2022-12-18T06:49:49;-5.50;99.90
14769;DHT22;7476;49.404;11.152;2022-12-18T06:52:16;-5.40;99.90
14769;DHT22;7476;49.404;11.152;2022-12-18T06:54:42;-5.40;99.90
14769;DHT22;7476;49.404;11.152;2022-12-18T06:57:09;-5.30;99.90
14769;DHT22;7476;49.404;11.152;2022-12-18T06:59:36;-5.20;99.90
14769;DHT22;7476;49.404;11.152;2022-12-18T07:02:03;-5.20;99.90
14769;DHT22;7476;49.404;11.152;2022-12-18T07:04:31;-5.20;99.90
14769;DHT22;7476;49.404;11.152;2022-12-18T07:06:58;-4.90;99.90
14769;DHT22;7476;49.404;11.152;2022-12-18T07:09:25;-4.80;99.90
14769;DHT22;7476;49.404;11.152;2022-12-18T07:11:51;-4.70;99.90
14769;DHT22;7476;49.404;11.152;2022-12-18T07:14:18;-4.60;99.90
14769;DHT22;7476;49.404;11.152;2022-12-18T07:16:46;-4.50;99.90
14769;DHT22;7476;49.404;11.152;2022-12-18T07:19:12;-4.40;99.90
14769;DHT22;7476;49.404;11.152;2022-12-18T07:21:40;-4.40;99.90
14769;DHT22;7476;49.404;11.152;2022-12-18T07:24:07;-4.40;99.90
14769;DHT22;7476;49.404;11.152;2022-12-18T07:26:34;-4.50;99.90
14769;DHT22;7476;49.404;11.152;2022-12-18T07:29:01;-4.50;99.90
14769;DHT22;7476;49.404;11.152;2022-12-18T07:31:27;-4.40;99.90
14769;DHT22;7476;49.404;11.152;2022-12-18T07:33:54;-4.30;99.90
14769;DHT22;7476;49.404;11.152;2022-12-18T07:36:21;-4.30;99.90
14769;DHT22;7476;49.404;11.152;2022-12-18T07:38:49;-4.20;99.90
14769;DHT22;7476;49.404;11.152;2022-12-18T07:41:17;-4.10;99.90
14769;DHT22;7476;49.404;11.152;2022-12-18T07:43:44;-4.10;99.90
14769;DHT22;7476;49.404;11.152;2022-12-18T07:46:12;-4.10;99.90
14769;DHT22;7476;49.404;11.152;2022-12-18T07:48:40;-4.00;99.90
14769;DHT22;7476;49.404;11.152;2022-12-18T07:51:07;-3.90;99.90
14769;DHT22;7476;49.404;11.152;2022-12-18T07:53:35;-3.90;99.90
14769;DHT22;7476;49.404;11.152;2022-12-18T07:56:05;-4.00;99.90
14769;DHT22;7476;49.404;11.152;2022-12-18T07:58:33;-3.90;99.90
14769;DHT22;7476;49.404;11.152;2022-12-18T08:01:03;-3.80;99.90
14769;DHT22;7476;49.404;11.152;2022-12-18T08:03:30;-3.80;99.90
14769;DHT22;7476;49.404;11.152;2022-12-18T08:05:59;-3.70;99.90
14769;DHT22;7476;49.404;11.152;2022-12-18T08:08:26;-3.70;99.90
14769;DHT22;7476;49.404;11.152;2022-12-18T08:10:53;-3.80;99.90
14769;DHT22;7476;49.404;11.152;2022-12-18T08:13:21;-3.70;99.90
14769;DHT22;7476;49.404;11.152;2022-12-18T08:15:56;-3.60;99.90
14769;DHT22;7476;49.404;11.152;2022-12-18T08:18:23;-3.70;99.90
14769;DHT22;7476;49.404;11.152;2022-12-18T08:20:50;-3.60;99.90
14769;DHT22;7476;49.404;11.152;2022-12-18T08:23:17;-3.50;99.90
14769;DHT22;7476;49.404;11.152;2022-12-18T08:25:43;-3.50;99.90
14769;DHT22;7476;49.404;11.152;2022-12-18T08:28:10;-3.40;99.90
14769;DHT22;7476;49.404;11.152;2022-12-18T08:30:38;-3.30;99.90
14769;DHT22;7476;49.404;11.152;2022-12-18T08:33:05;-3.30;99.90
14769;DHT22;7476;49.404;11.152;2022-12-18T08:35:35;-3.30;99.90
14769;DHT22;7476;49.404;11.152;2022-12-18T08:38:02;-3.20;99.90
14769;DHT22;7476;49.404;11.152;2022-12-18T08:40:28;-3.10;99.90
14769;DHT22;7476;49.404;11.152;2022-12-18T08:42:55;-3.00;99.90
14769;DHT22;7476;49.404;11.152;2022-12-18T08:45:49;-3.00;99.90
14769;DHT22;7476;49.404;11.152;2022-12-18T08:48:15;-3.10;99.90
14769;DHT22;7476;49.404;11.152;2022-12-18T08:50:42;-2.90;99.90
14769;DHT22;7476;49.404;11.152;2022-12-18T08:53:09;-3.00;99.90
14769;DHT22;7476;49.404;11.152;2022-12-18T08:55:35;-3.00;99.90
14769;DHT22;7476;49.404;11.152;2022-12-18T08:58:02;-3.10;99.90
14769;DHT22;7476;49.404;11.152;2022-12-18T09:00:29;-3.00;99.90
14769;DHT22;7476;49.404;11.152;2022-12-18T09:02:57;-2.90;99.90
14769;DHT22;7476;49.404;11.152;2022-12-18T09:05:23;-2.90;99.90
14769;DHT22;7476;49.404;11.152;2022-12-18T09:07:51;-2.90;99.90
14769;DHT22;7476;49.404;11.152;2022-12-18T09:10:17;-2.90;99.90
14769;DHT22;7476;49.404;11.152;2022-12-18T09:12:44;-2.90;99.90
14769;DHT22;7476;49.404;11.152;2022-12-18T09:15:11;-2.80;99.90
14769;DHT22;7476;49.404;11.152;2022-12-18T09:17:37;-2.80;99.90
14769;DHT22;7476;49.404;11.152;2022-12-18T09:20:07;-2.80;99.90
14769;DHT22;7476;49.404;11.152;2022-12-18T09:22:34;-2.80;99.90
14769;DHT22;7476;49.404;11.152;2022-12-18T09:25:00;-2.90;99.90
14769;DHT22;7476;49.404;11.152;2022-12-18T09:27:27;-2.80;99.90
14769;DHT22;7476;49.404;11.152;2022-12-18T09:29:54;-2.70;99.90
14769;DHT22;7476;49.404;11.152;2022-12-18T09:32:21;-3.00;99.90
14769;DHT22;7476;49.404;11.152;2022-12-18T09:34:47;-2.80;99.90
14769;DHT22;7476;49.404;11.152;2022-12-18T09:37:16;-3.10;99.90
14769;DHT22;7476;49.404;11.152;2022-12-18T09:39:42;-2.90;99.90
14769;DHT22;7476;49.404;11.152;2022-12-18T09:42:14;-2.70;99.90
14769;DHT22;7476;49.404;11.152;2022-12-18T09:44:45;-2.50;99.90
14769;DHT22;7476;49.404;11.152;2022-12-18T09:47:17;-2.10;99.90
14769;DHT22;7476;49.404;11.152;2022-12-18T09:49:46;-1.90;99.90
14769;DHT22;7476;49.404;11.152;2022-12-18T09:52:19;-1.50;99.90
14769;DHT22;7476;49.404;11.152;2022-12-18T09:54:51;-1.30;99.90
14769;DHT22;7476;49.404;11.152;2022-12-18T09:57:20;-1.40;99.90
14769;DHT22;7476;49.404;11.152;2022-12-18T09:59:51;-1.60;99.90
14769;DHT22;7476;49.404;11.152;2022-12-18T10:02:21;-2.20;99.90
14769;DHT22;7476;49.404;11.152;2022-12-18T10:04:56;-2.20;99.90
14769;DHT22;7476;49.404;11.152;2022-12-18T10:07:36;-2.10;99.90
14769;DHT22;7476;49.404;11.152;2022-12-18T10:10:14;-2.20;99.90
14769;DHT22;7476;49.404;11.152;2022-12-18T10:12:47;-1.90;99.90
14769;DHT22;7476;49.404;11.152;2022-12-18T10:15:21;-1.90;99.90
14769;DHT22;7476;49.404;11.152;2022-12-18T10:17:54;-1.80;99.90
14769;DHT22;7476;49.404;11.152;2022-12-18T10:20:28;-1.80;99.90
14769;DHT22;7476;49.404;11.152;2022-12-18T10:23:01;-1.70;99.90
14769;DHT22;7476;49.404;11.152;2022-12-18T10:25:36;-1.80;99.90
14769;DHT22;7476;49.404;11.152;2022-12-18T10:28:10;-1.50;99.90
14769;DHT22;7476;49.404;11.152;2022-12-18T10:30:39;-1.60;99.90
14769;DHT22;7476;49.404;11.152;2022-12-18T10:33:10;-1.40;99.90
14769;DHT22;7476;49.404;11.152;2022-12-18T10:35:41;-1.50;99.90
14769;DHT22;7476;49.404;11.152;2022-12-18T10:38:22;-1.30;99.90
14769;DHT22;7476;49.404;11.152;2022-12-18T10:40:51;-1.00;99.90
14769;DHT22;7476;49.404;11.152;2022-12-18T10:43:24;-0.70;99.90
14769;DHT22;7476;49.404;11.152;2022-12-18T10:46:11;-1.20;99.90
14769;DHT22;7476;49.404;11.152;2022-12-18T10:48:47;-1.00;99.90
14769;DHT22;7476;49.404;11.152;2022-12-18T10:51:20;-0.20;99.90
14769;DHT22;7476;49.404;11.152;2022-12-18T10:53:54;0.40;99.90
14769;DHT22;7476;49.404;11.152;2022-12-18T10:56:24;1.00;99.90
14769;DHT22;7476;49.404;11.152;2022-12-18T10:58:57;1.60;99.90
14769;DHT22;7476;49.404;11.152;2022-12-18T11:01:24;1.50;99.90
14769;DHT22;7476;49.404;11.152;2022-12-18T11:04:00;1.10;99.90
14769;DHT22;7476;49.404;11.152;2022-12-18T11:06:27;0.20;99.90
14769;DHT22;7476;49.404;11.152;2022-12-18T11:08:59;-0.50;99.90
14769;DHT22;7476;49.404;11.152;2022-12-18T11:11:26;-1.10;99.90
14769;DHT22;7476;49.404;11.152;2022-12-18T11:14:01;-1.60;99.90
14769;DHT22;7476;49.404;11.152;2022-12-18T11:16:30;-1.60;99.90
14769;DHT22;7476;49.404;11.152;2022-12-18T11:19:19;-1.70;99.90
14769;DHT22;7476;49.404;11.152;2022-12-18T11:21:47;-1.60;99.90
14769;DHT22;7476;49.404;11.152;2022-12-18T11:24:20;-1.50;99.90
14769;DHT22;7476;49.404;11.152;2022-12-18T11:26:51;-1.70;99.90
14769;DHT22;7476;49.404;11.152;2022-12-18T11:29:24;-1.70;99.90
14769;DHT22;7476;49.404;11.152;2022-12-18T11:32:20;-1.60;99.90
14769;DHT22;7476;49.404;11.152;2022-12-18T11:34:50;-0.60;99.90
14769;DHT22;7476;49.404;11.152;2022-12-18T11:37:18;0.80;99.90
14769;DHT22;7476;49.404;11.152;2022-12-18T11:39:50;2.30;99.90
14769;DHT22;7476;49.404;11.152;2022-12-18T11:42:23;2.90;99.90
14769;DHT22;7476;49.404;11.152;2022-12-18T11:44:53;3.80;99.90
14769;DHT22;7476;49.404;11.152;2022-12-18T11:47:26;4.00;99.90
14769;DHT22;7476;49.404;11.152;2022-12-18T11:49:56;3.90;99.90
14769;DHT22;7476;49.404;11.152;2022-12-18T11:52:27;4.30;99.90
14769;DHT22;7476;49.404;11.152;2022-12-18T11:55:01;3.90;99.90
14769;DHT22;7476;49.404;11.152;2022-12-18T11:57:38;2.60;99.90
14769;DHT22;7476;49.404;11.152;2022-12-18T12:00:13;3.30;99.90
14769;DHT22;7476;49.404;11.152;2022-12-18T12:02:55;4.00;99.90
14769;DHT22;7476;49.404;11.152;2022-12-18T12:05:35;3.80;99.90
14769;DHT22;7476;49.404;11.152;2022-12-18T12:08:11;3.40;99.90
14769;DHT22;7476;49.404;11.152;2022-12-18T12:10:50;2.40;99.90
14769;DHT22;7476;49.404;11.152;2022-12-18T12:13:27;2.40;99.90
14769;DHT22;7476;49.404;11.152;2022-12-18T12:16:05;2.30;99.90
14769;DHT22;7476;49.404;11.152;2022-12-18T12:18:50;2.20;99.90
14769;DHT22;7476;49.404;11.152;2022-12-18T12:21:24;2.50;99.90
14769;DHT22;7476;49.404;11.152;2022-12-18T12:23:57;2.30;99.90
14769;DHT22;7476;49.404;11.152;2022-12-18T12:26:30;2.40;99.90
14769;DHT22;7476;49.404;11.152;2022-12-18T12:29:04;2.10;99.90
14769;DHT22;7476;49.404;11.152;2022-12-18T12:31:46;1.80;99.90
14769;DHT22;7476;49.404;11.152;2022-12-18T12:34:20;1.80;99.90
14769;DHT22;7476;49.404;11.152;2022-12-18T12:36:58;2.40;99.90
14769;DHT22;7476;49.404;11.152;2022-12-18T12:39:32;2.40;99.90
14769;DHT22;7476;49.404;11.152;2022-12-18T12:42:04;1.90;99.90
14769;DHT22;7476;49.404;11.152;2022-12-18T12:44:53;1.80;99.90
14769;DHT22;7476;49.404;11.152;2022-12-18T12:47:23;1.90;99.90
14769;DHT22;7476;49.404;11.152;2022-12-18T12:49:52;1.90;99.90
14769;DHT22;7476;49.404;11.152;2022-12-18T12:52:28;1.70;99.90
14769;DHT22;7476;49.404;11.152;2022-12-18T12:54:57;1.60;99.90
14769;DHT22;7476;49.404;11.152;2022-12-18T12:57:31;1.40;99.90
14769;DHT22;7476;49.404;11.152;2022-12-18T13:00:03;1.70;99.90
14769;DHT22;7476;49.404;11.152;2022-12-18T13:02:35;1.30;99.90
14769;DHT22;7476;49.404;11.152;2022-12-18T13:05:09;0.70;99.90
14769;DHT22;7476;49.404;11.152;2022-12-18T13:07:45;1.10;99.90
14769;DHT22;7476;49.404;11.152;2022-12-18T13:10:31;1.20;99.90
14769;DHT22;7476;49.404;11.152;2022-12-18T13:13:02;1.40;99.90
14769;DHT22;7476;49.404;11.152;2022-12-18T13:15:33;1.60;99.90
14769;DHT22;7476;49.404;11.152;2022-12-18T13:18:10;1.40;99.90
14769;DHT22;7476;49.404;11.152;2022-12-18T13:20:40;1.30;99.90
14769;DHT22;7476;49.404;11.152;2022-12-18T13:23:29;1.40;99.90
14769;DHT22;7476;49.404;11.152;2022-12-18T13:25:57;1.60;99.90
14769;DHT22;7476;49.404;11.152;2022-12-18T13:28:51;1.30;99.90
14769;DHT22;7476;49.404;11.152;2022-12-18T13:34:33;1.20;99.90
14769;DHT22;7476;49.404;11.152;2022-12-18T13:43:22;0.60;99.90
14769;DHT22;7476;49.404;11.152;2022-12-18T13:46:00;0.40;99.90
14769;DHT22;7476;49.404;11.152;2022-12-18T13:48:30;-0.10;99.90
14769;DHT22;7476;49.404;11.152;2022-12-18T13:51:00;-0.20;99.90
14769;DHT22;7476;49.404;11.152;2022-12-18T13:53:32;-0.30;99.90
14769;DHT22;7476;49.404;11.152;2022-12-18T13:56:00;-0.40;99.90
14769;DHT22;7476;49.404;11.152;2022-12-18T13:58:28;-0.60;99.90
14769;DHT22;7476;49.404;11.152;2022-12-18T14:00:56;-0.80;99.90
14769;DHT22;7476;49.404;11.152;2022-12-18T14:03:27;-0.90;99.90
14769;DHT22;7476;49.404;11.152;2022-12-18T14:06:00;-1.10;99.90
14769;DHT22;7476;49.404;11.152;2022-12-18T14:08:32;-1.00;99.90
14769;DHT22;7476;49.404;11.152;2022-12-18T14:11:01;-1.10;99.90
14769;DHT22;7476;49.404;11.152;2022-12-18T14:13:32;-1.20;99.90
14769;DHT22;7476;49.404;11.152;2022-12-18T14:16:03;-1.40;99.90
14769;DHT22;7476;49.404;11.152;2022-12-18T14:18:36;-1.40;99.90
14769;DHT22;7476;49.404;11.152;2022-12-18T14:21:05;-1.40;99.90
14769;DHT22;7476;49.404;11.152;2022-12-18T14:23:34;-1.50;99.90
14769;DHT22;7476;49.404;11.152;2022-12-18T14:26:02;-1.50;99.90
14769;DHT22;7476;49.404;11.152;2022-12-18T14:28:30;-1.50;99.90
14769;DHT22;7476;49.404;11.152;2022-12-18T14:30:56;-1.70;99.90
14769;DHT22;7476;49.404;11.152;2022-12-18T14:33:26;-1.90;99.90
14769;DHT22;7476;49.404;11.152;2022-12-18T14:35:56;-2.00;99.90
14769;DHT22;7476;49.404;11.152;2022-12-18T14:38:29;-2.10;99.90
14769;DHT22;7476;49.404;11.152;2022-12-18T14:40:57;-2.20;99.90
14769;DHT22;7476;49.404;11.152;2022-12-18T14:43:24;-2.20;99.90
14769;DHT22;7476;49.404;11.152;2022-12-18T14:45:52;-2.40;99.90
14769;DHT22;7476;49.404;11.152;2022-12-18T14:48:20;-2.50;99.90
14769;DHT22;7476;49.404;11.152;2022-12-18T14:50:58;-2.70;99.90
14769;DHT22;7476;49.404;11.152;2022-12-18T14:53:33;-2.80;99.90
14769;DHT22;7476;49.404;11.152;2022-12-18T14:56:01;-3.00;99.90
14769;DHT22;7476;49.404;11.152;2022-12-18T14:58:28;-3.10;99.90
14769;DHT22;7476;49.404;11.152;2022-12-18T15:00:55;-3.20;99.90
14769;DHT22;7476;49.404;11.152;2022-12-18T15:03:22;-3.30;99.90
14769;DHT22;7476;49.404;11.152;2022-12-18T15:05:48;-3.40;99.90
14769;DHT22;7476;49.404;11.152;2022-12-18T15:08:34;-3.60;99.90
14769;DHT22;7476;49.404;11.152;2022-12-18T15:11:02;-3.60;99.90
14769;DHT22;7476;49.404;11.152;2022-12-18T15:13:29;-3.80;99.90
14769;DHT22;7476;49.404;11.152;2022-12-18T15:15:57;-4.00;99.90
14769;DHT22;7476;49.404;11.152;2022-12-18T15:18:32;-4.20;99.90
14769;DHT22;7476;49.404;11.152;2022-12-18T15:21:08;-4.10;99.90
14769;DHT22;7476;49.404;11.152;2022-12-18T15:23:48;-4.20;99.90
14769;DHT22;7476;49.404;11.152;2022-12-18T15:26:17;-4.10;99.90
14769;DHT22;7476;49.404;11.152;2022-12-18T15:28:45;-4.00;99.90
14769;DHT22;7476;49.404;11.152;2022-12-18T15:31:28;-4.10;99.90
14769;DHT22;7476;49.404;11.152;2022-12-18T15:34:05;-4.10;99.90
14769;DHT22;7476;49.404;11.152;2022-12-18T15:36:31;-4.10;99.90
14769;DHT22;7476;49.404;11.152;2022-12-18T15:39:03;-4.20;99.90
14769;DHT22;7476;49.404;11.152;2022-12-18T15:41:31;-4.20;99.90
14769;DHT22;7476;49.404;11.152;2022-12-18T15:43:59;-4.40;99.90
14769;DHT22;7476;49.404;11.152;2022-12-18T15:46:25;-4.30;99.90
14769;DHT22;7476;49.404;11.152;2022-12-18T15:48:54;-4.50;99.90
14769;DHT22;7476;49.404;11.152;2022-12-18T15:51:23;-4.40;99.90
14769;DHT22;7476;49.404;11.152;2022-12-18T15:53:52;-4.40;99.90
14769;DHT22;7476;49.404;11.152;2022-12-18T15:56:20;-4.50;99.90
14769;DHT22;7476;49.404;11.152;2022-12-18T15:59:09;-4.50;99.90